createdAt,value
2023-04-12T00:01:37.642Z,46.28
2023-04-12T00:04:05.861Z,46.29
2023-04-12T00:06:34.027Z,45.98
2023-04-12T00:09:04.393Z,45.93
2023-04-12T00:11:32.449Z,46.35
2023-04-12T00:14:01.444Z,46.20
2023-04-12T00:16:29.308Z,46.05
2023-04-12T00:18:59.017Z,45.87
2023-04-12T00:21:28.911Z,46.39
2023-04-12T00:23:57.343Z,45.96
2023-04-12T00:26:26.218Z,46.03
2023-04-12T00:28:56.195Z,46.26
2023-04-12T00:31:25.318Z,45.92
2023-04-12T00:33:53.332Z,46.16
2023-04-12T00:36:22.366Z,46.09
2023-04-12T00:38:50.154Z,46.18
2023-04-12T00:41:18.089Z,45.77
2023-04-12T00:43:48.321Z,45.90
2023-04-12T00:46:18.291Z,45.68
2023-04-12T00:48:48.642Z,45.69
2023-04-12T00:51:18.462Z,45.49
2023-04-12T00:53:46.507Z,45.18
2023-04-12T00:56:14.673Z,45.15
2023-04-12T00:58:43.840Z,44.82
2023-04-12T01:01:11.859Z,44.57
2023-04-12T01:03:43.864Z,44.86
2023-04-12T01:06:34.578Z,45.02
2023-04-12T01:09:27.468Z,44.46
2023-04-12T01:12:29.998Z,44.42
2023-04-12T01:15:12.342Z,44.24
2023-04-12T01:18:14.797Z,43.88
2023-04-12T01:20:51.422Z,44.26
2023-04-12T01:23:19.318Z,44.02
2023-04-12T01:26:09.093Z,43.96
2023-04-12T01:28:41.567Z,44.16
2023-04-12T01:31:10.690Z,43.90
2023-04-12T01:33:41.997Z,43.78
2023-04-12T01:36:14.224Z,43.66
2023-04-12T01:38:42.540Z,43.63
2023-04-12T01:41:13.071Z,43.51
2023-04-12T01:43:44.969Z,43.40
2023-04-12T01:46:16.994Z,43.60
2023-04-12T01:48:51.123Z,43.10
2023-04-12T01:51:47.058Z,43.20
2023-04-12T01:54:20.131Z,43.32
2023-04-12T01:56:55.181Z,43.45
2023-04-12T01:59:26.783Z,43.53
2023-04-12T02:01:55.103Z,43.82
2023-04-12T02:04:26.476Z,43.46
2023-04-12T02:06:57.924Z,43.76
2023-04-12T02:09:25.685Z,43.36
2023-04-12T02:11:53.915Z,43.64
2023-04-12T02:14:22.109Z,43.98
2023-04-12T02:16:51.078Z,43.98
2023-04-12T02:19:21.249Z,43.86
2023-04-12T02:21:50.057Z,43.74
2023-04-12T02:24:17.902Z,43.15
2023-04-12T02:26:46.268Z,43.42
2023-04-12T02:29:15.706Z,43.42
2023-04-12T02:31:44.286Z,43.63
2023-04-12T02:34:13.593Z,43.27
2023-04-12T02:36:50.577Z,43.79
2023-04-12T02:39:19.008Z,42.98
2023-04-12T02:41:49.020Z,42.69
2023-04-12T02:44:17.428Z,42.43
2023-04-12T02:46:53.707Z,42.64
2023-04-12T02:49:21.502Z,42.18
2023-04-12T02:51:49.623Z,42.19
2023-04-12T02:54:22.133Z,41.83
2023-04-12T02:56:53.650Z,41.86
2023-04-12T02:59:35.216Z,41.31
2023-04-12T03:02:15.264Z,40.60
2023-04-12T03:04:47.052Z,40.64
2023-04-12T03:07:21.422Z,40.97
2023-04-12T03:09:51.765Z,41.00
2023-04-12T03:12:21.788Z,40.98
2023-04-12T03:15:10.256Z,41.14
2023-04-12T03:17:38.075Z,41.30
2023-04-12T03:20:10.348Z,41.41
2023-04-12T03:22:43.876Z,42.03
2023-04-12T03:25:13.300Z,41.86
2023-04-12T03:27:47.671Z,42.61
2023-04-12T03:30:19.083Z,42.58
2023-04-12T03:32:47.700Z,42.87
2023-04-12T03:35:15.753Z,42.66
2023-04-12T03:37:44.056Z,42.66
2023-04-12T03:40:13.605Z,43.11
2023-04-12T03:42:46.714Z,43.04
2023-04-12T03:45:16.244Z,43.14
2023-04-12T03:47:49.848Z,43.74
2023-04-12T03:50:20.878Z,43.67
2023-04-12T03:52:55.827Z,43.75
2023-04-12T03:55:29.405Z,43.91
2023-04-12T03:57:58.534Z,44.15
2023-04-12T04:00:32.195Z,44.10
2023-04-12T04:03:09.949Z,44.42
2023-04-12T04:06:02.436Z,44.46
2023-04-12T04:08:33.264Z,45.07
2023-04-12T04:11:02.043Z,45.06
2023-04-12T04:13:38.135Z,45.03
2023-04-12T04:16:12.231Z,45.33
2023-04-12T04:18:41.881Z,44.88
2023-04-12T04:21:14.501Z,44.84
2023-04-12T04:23:44.937Z,44.71
2023-04-12T04:26:14.000Z,44.60
2023-04-12T04:28:51.164Z,44.76
2023-04-12T04:31:26.603Z,44.80
2023-04-12T04:33:54.794Z,44.64
2023-04-12T04:36:30.384Z,44.75
2023-04-12T04:39:04.340Z,45.16
2023-04-12T04:41:40.607Z,45.04
2023-04-12T04:44:14.701Z,44.69
2023-04-12T04:46:53.667Z,45.06
2023-04-12T04:49:22.896Z,44.84
2023-04-12T04:51:50.867Z,45.79
2023-04-12T04:54:20.603Z,45.22
2023-04-12T04:56:48.409Z,44.69
2023-04-12T04:59:18.600Z,44.41
2023-04-12T05:01:48.765Z,43.97
2023-04-12T05:04:18.402Z,43.97
2023-04-12T05:06:46.826Z,43.69
2023-04-12T05:09:18.018Z,44.00
2023-04-12T05:11:55.050Z,44.02
2023-04-12T05:14:23.413Z,44.02
2023-04-12T05:16:51.826Z,44.16
2023-04-12T05:19:19.927Z,44.27
2023-04-12T05:21:47.751Z,44.55
2023-04-12T05:24:16.186Z,45.51
2023-04-12T05:26:48.625Z,45.47
2023-04-12T05:29:16.771Z,45.38
2023-04-12T05:31:45.512Z,45.52
2023-04-12T05:34:19.469Z,45.74
2023-04-12T05:36:54.483Z,45.28
2023-04-12T05:39:23.356Z,45.36
2023-04-12T05:41:53.623Z,45.58
2023-04-12T05:44:21.591Z,46.18
2023-04-12T05:46:49.389Z,46.26
2023-04-12T05:49:17.621Z,46.33
2023-04-12T05:51:45.925Z,47.26
2023-04-12T05:54:22.862Z,47.17
2023-04-12T05:56:55.758Z,46.59
2023-04-12T05:59:24.025Z,47.34
2023-04-12T06:01:51.843Z,47.68
2023-04-12T06:04:21.162Z,48.30
2023-04-12T06:06:52.401Z,48.14
2023-04-12T06:09:22.709Z,48.17
2023-04-12T06:11:52.564Z,47.60
2023-04-12T06:14:20.931Z,47.50
2023-04-12T06:16:48.721Z,47.16
2023-04-12T06:19:18.314Z,46.91
2023-04-12T06:21:49.856Z,46.66
2023-04-12T06:24:19.840Z,46.76
2023-04-12T06:26:48.372Z,46.28
2023-04-12T06:29:17.445Z,46.34
2023-04-12T06:31:48.636Z,46.40
2023-04-12T06:34:17.134Z,46.36
2023-04-12T06:36:47.932Z,46.39
2023-04-12T06:39:17.060Z,46.56
2023-04-12T06:41:47.463Z,46.70
2023-04-12T06:44:20.143Z,46.34
2023-04-12T06:46:48.324Z,46.15
2023-04-12T06:49:16.331Z,45.92
2023-04-12T06:51:44.789Z,46.14
2023-04-12T06:54:13.106Z,45.77
2023-04-12T06:56:43.386Z,45.84
2023-04-12T06:59:11.400Z,45.91
2023-04-12T07:01:41.309Z,45.95
2023-04-12T07:04:09.871Z,45.98
2023-04-12T07:06:37.682Z,45.87
2023-04-12T07:09:05.556Z,46.02
2023-04-12T07:11:33.698Z,46.22
2023-04-12T07:14:01.654Z,45.80
2023-04-12T07:16:31.775Z,45.68
2023-04-12T07:19:01.070Z,45.01
2023-04-12T07:21:29.017Z,44.48
2023-04-12T07:23:56.885Z,44.28
2023-04-12T07:26:24.735Z,44.66
2023-04-12T07:28:52.463Z,44.66
2023-04-12T07:31:20.684Z,44.26
2023-04-12T07:33:48.607Z,44.32
2023-04-12T07:36:21.283Z,44.41
2023-04-12T07:38:51.612Z,44.40
2023-04-12T07:41:19.736Z,44.58
2023-04-12T07:43:49.052Z,44.73
2023-04-12T07:46:17.324Z,44.56
2023-04-12T07:48:45.201Z,44.78
2023-04-12T07:51:13.601Z,44.67
2023-04-12T07:53:42.524Z,44.38
2023-04-12T07:56:10.618Z,44.33
2023-04-12T07:58:38.773Z,43.61
2023-04-12T08:01:07.726Z,43.24
2023-04-12T08:03:35.953Z,43.49
2023-04-12T08:06:04.167Z,43.37
2023-04-12T08:08:32.063Z,43.45
2023-04-12T08:11:08.080Z,43.23
2023-04-12T08:13:37.583Z,43.70
2023-04-12T08:16:06.793Z,43.60
2023-04-12T08:18:34.744Z,45.95
2023-04-12T08:21:02.833Z,45.01
2023-04-12T08:23:30.942Z,44.89
2023-04-12T08:26:03.785Z,44.37
2023-04-12T08:28:32.285Z,44.40
2023-04-12T08:31:00.237Z,44.62
2023-04-12T08:33:28.019Z,44.88
2023-04-12T08:35:55.888Z,44.33
2023-04-12T08:38:37.290Z,45.77
2023-04-12T08:41:11.729Z,44.94
2023-04-12T08:43:45.200Z,44.82
2023-04-12T08:46:18.221Z,44.68
2023-04-12T08:48:54.395Z,44.50
2023-04-12T08:51:23.239Z,44.51
2023-04-12T08:53:51.782Z,44.48
2023-04-12T08:56:21.033Z,44.08
2023-04-12T08:58:49.815Z,44.15
2023-04-12T09:01:20.467Z,43.78
2023-04-12T09:03:48.646Z,43.48
2023-04-12T09:06:16.952Z,43.10
2023-04-12T09:08:57.525Z,43.09
2023-04-12T09:11:28.244Z,43.45
2023-04-12T09:13:58.254Z,43.16
2023-04-12T09:16:42.558Z,43.08
2023-04-12T09:19:10.492Z,43.25
2023-04-12T09:21:52.743Z,42.34
2023-04-12T09:24:24.483Z,43.21
2023-04-12T09:27:06.260Z,42.25
2023-04-12T09:29:34.487Z,42.86
2023-04-12T09:32:08.217Z,42.66
2023-04-12T09:34:37.425Z,42.79
2023-04-12T09:37:17.863Z,42.30
2023-04-12T09:39:45.572Z,42.71
2023-04-12T09:42:32.270Z,42.59
2023-04-12T09:45:19.423Z,42.60
2023-04-12T09:47:47.757Z,43.02
2023-04-12T09:50:29.079Z,43.33
2023-04-12T09:52:58.698Z,43.49
2023-04-12T09:55:28.597Z,43.96
2023-04-12T09:57:56.836Z,44.05
2023-04-12T10:00:27.109Z,44.21
2023-04-12T10:02:57.025Z,44.69
2023-04-12T10:05:27.922Z,45.15
2023-04-12T10:07:58.856Z,45.46
2023-04-12T10:10:31.660Z,45.13
2023-04-12T10:13:00.766Z,45.74
2023-04-12T10:15:30.299Z,46.08
2023-04-12T10:18:07.905Z,46.47
2023-04-12T10:20:42.115Z,46.26
2023-04-12T10:23:12.448Z,46.50
2023-04-12T10:25:44.881Z,46.79
2023-04-12T10:28:23.211Z,47.00
2023-04-12T10:30:53.416Z,46.75
2023-04-12T10:33:34.319Z,46.89
2023-04-12T10:36:12.127Z,46.93
2023-04-12T10:38:47.806Z,47.41
2023-04-12T10:41:22.569Z,47.28
2023-04-12T10:43:52.344Z,47.15
2023-04-12T10:46:41.276Z,47.61
2023-04-12T10:49:13.829Z,47.14
2023-04-12T10:52:01.159Z,47.38
2023-04-12T10:54:29.791Z,47.34
2023-04-12T10:56:57.697Z,47.35
2023-04-12T11:00:05.797Z,47.82
2023-04-12T11:02:36.766Z,47.19
2023-04-12T11:05:05.672Z,47.32
2023-04-12T11:07:55.077Z,47.42
2023-04-12T11:10:41.949Z,47.36
2023-04-12T11:13:17.401Z,47.54
2023-04-12T11:15:45.307Z,47.35
2023-04-12T11:18:13.764Z,47.41
2023-04-12T11:20:41.699Z,47.02
2023-04-12T11:23:11.798Z,47.50
2023-04-12T11:25:40.560Z,47.33
2023-04-12T11:28:21.175Z,47.37
2023-04-12T11:30:54.794Z,47.21
2023-04-12T11:33:52.282Z,47.39
2023-04-12T11:36:20.406Z,46.95
2023-04-12T11:38:48.437Z,47.39
2023-04-12T11:41:18.720Z,47.12
2023-04-12T11:43:48.391Z,47.49
2023-04-12T11:46:16.690Z,47.53
2023-04-12T11:48:47.229Z,47.19
2023-04-12T11:51:21.705Z,47.40
2023-04-12T11:53:53.458Z,47.03
2023-04-12T11:56:21.828Z,47.31
2023-04-12T11:58:50.086Z,47.09
2023-04-12T12:01:19.899Z,46.94
2023-04-12T12:03:49.564Z,47.52
2023-04-12T12:06:19.185Z,47.21
2023-04-12T12:08:47.259Z,47.53
2023-04-12T12:11:15.714Z,47.37
2023-04-12T12:13:51.894Z,47.46
2023-04-12T12:16:25.806Z,47.51
2023-04-12T12:18:54.423Z,47.89
2023-04-12T12:21:22.738Z,48.07
2023-04-12T12:23:50.596Z,47.89
2023-04-12T12:26:27.430Z,48.85
2023-04-12T12:29:06.271Z,48.32
2023-04-12T12:31:34.122Z,48.50
2023-04-12T12:34:04.268Z,47.84
2023-04-12T12:36:36.520Z,47.58
2023-04-12T12:39:13.134Z,47.78
2023-04-12T12:41:41.574Z,47.68
2023-04-12T12:44:11.589Z,47.38
2023-04-12T12:49:10.553Z,47.12
2023-04-12T12:51:39.635Z,46.92
2023-04-12T12:54:08.009Z,46.86
2023-04-12T12:56:37.166Z,46.61
2023-04-12T12:59:04.923Z,46.01
2023-04-12T13:01:33.879Z,46.66
2023-04-12T13:04:13.583Z,46.58
2023-04-12T13:06:45.342Z,47.38
2023-04-12T13:09:13.320Z,47.33
2023-04-12T13:11:41.075Z,47.36
2023-04-12T13:14:09.884Z,46.09
2023-04-12T13:16:37.925Z,43.02
2023-04-12T13:19:07.009Z,42.37
2023-04-12T13:21:37.831Z,42.81
2023-04-12T13:24:07.792Z,42.61
2023-04-12T13:26:35.675Z,43.69
2023-04-12T13:29:04.699Z,40.98
2023-04-12T13:31:32.396Z,39.50
2023-04-12T13:34:00.540Z,39.56
2023-04-12T13:36:28.729Z,37.19
2023-04-12T13:38:57.042Z,34.67
2023-04-12T13:41:26.317Z,35.39
2023-04-12T13:43:55.029Z,36.91
2023-04-12T13:46:23.112Z,34.87
2023-04-12T13:48:53.167Z,33.48
2023-04-12T13:51:21.677Z,33.04
2023-04-12T13:53:49.758Z,31.41
2023-04-12T13:56:18.022Z,32.50
2023-04-12T13:58:45.724Z,33.52
2023-04-12T14:01:13.880Z,34.84
2023-04-12T14:03:41.773Z,35.60
2023-04-12T14:06:10.053Z,36.46
2023-04-12T14:08:37.995Z,37.07
2023-04-12T14:11:07.863Z,37.69
2023-04-12T14:13:35.670Z,35.06
2023-04-12T14:16:04.017Z,35.03
2023-04-12T14:18:31.916Z,35.78
2023-04-12T14:20:59.816Z,32.61
2023-04-12T14:23:27.881Z,33.72
2023-04-12T14:25:55.749Z,31.33
2023-04-12T14:28:27.864Z,32.66
2023-04-12T14:30:55.639Z,33.05
2023-04-12T14:33:25.511Z,33.60
2023-04-12T14:35:53.949Z,33.56
2023-04-12T14:38:23.089Z,33.25
2023-04-12T14:40:51.855Z,34.00
2023-04-12T14:43:19.708Z,35.60
2023-04-12T14:45:50.165Z,36.59
2023-04-12T14:48:18.321Z,34.58
2023-04-12T14:50:46.015Z,34.07
2023-04-12T14:53:14.223Z,34.25
2023-04-12T14:55:44.779Z,29.71
2023-04-12T14:58:13.100Z,29.95
2023-04-12T15:00:41.982Z,28.81
2023-04-12T15:03:10.983Z,28.56
2023-04-12T15:05:39.151Z,28.50
2023-04-12T15:08:07.692Z,29.07
2023-04-12T15:10:36.786Z,29.87
2023-04-12T15:13:04.664Z,32.01
2023-04-12T15:15:32.626Z,33.89
2023-04-12T15:18:00.497Z,35.88
2023-04-12T15:20:28.369Z,37.20
2023-04-12T15:22:56.553Z,37.46
2023-04-12T15:25:24.756Z,37.56
2023-04-12T15:27:52.633Z,38.50
2023-04-12T15:30:20.516Z,37.36
2023-04-12T15:32:49.115Z,36.74
2023-04-12T15:35:26.478Z,38.03
2023-04-12T15:37:55.739Z,39.03
2023-04-12T15:40:24.670Z,39.82
2023-04-12T15:42:53.964Z,40.65
2023-04-12T15:45:23.055Z,41.09
2023-04-12T15:47:52.076Z,40.41
2023-04-12T15:50:19.982Z,40.32
2023-04-12T15:52:48.350Z,36.22
2023-04-12T15:55:19.024Z,38.65
2023-04-12T15:57:47.229Z,36.59
2023-04-12T16:00:26.360Z,35.13
2023-04-12T16:02:56.271Z,34.52
2023-04-12T16:05:27.594Z,34.51
2023-04-12T16:07:56.817Z,35.86
2023-04-12T16:10:25.002Z,37.74
2023-04-12T16:12:54.393Z,39.11
2023-04-12T16:15:22.816Z,39.88
2023-04-12T16:17:55.775Z,40.80
2023-04-12T16:20:24.499Z,41.43
2023-04-12T16:22:58.863Z,41.51
2023-04-12T16:25:30.406Z,41.92
2023-04-12T16:28:02.521Z,42.81
2023-04-12T16:30:32.564Z,44.02
2023-04-12T16:33:00.720Z,43.69
2023-04-12T16:35:28.609Z,43.53
2023-04-12T16:37:56.526Z,43.63
2023-04-12T16:40:27.283Z,43.27
2023-04-12T16:42:55.493Z,43.57
2023-04-12T16:45:23.985Z,43.73
2023-04-12T16:47:51.983Z,44.15
2023-04-12T16:50:22.132Z,44.23
2023-04-12T16:52:51.920Z,44.46
2023-04-12T16:55:19.893Z,44.83
2023-04-12T16:57:49.890Z,44.21
2023-04-12T17:00:23.999Z,44.59
2023-04-12T17:02:53.928Z,44.42
2023-04-12T17:05:23.971Z,44.78
2023-04-12T17:07:54.381Z,44.61
2023-04-12T17:10:25.487Z,45.13
2023-04-12T17:12:56.856Z,45.01
2023-04-12T17:15:26.824Z,44.79
2023-04-12T17:18:01.633Z,44.74
2023-04-12T17:20:29.728Z,44.82
2023-04-12T17:22:58.999Z,44.83
2023-04-12T17:25:30.222Z,44.72
2023-04-12T17:27:59.607Z,44.53
2023-04-12T17:30:28.117Z,44.82
2023-04-12T17:32:57.786Z,44.50
2023-04-12T17:35:25.853Z,44.80
2023-04-12T17:37:53.648Z,44.76
2023-04-12T17:40:21.517Z,44.69
2023-04-12T17:42:49.525Z,44.63
2023-04-12T17:45:18.506Z,44.59
2023-04-12T17:47:47.618Z,44.72
2023-04-12T17:50:15.403Z,44.60
2023-04-12T17:52:43.333Z,47.56
2023-04-12T17:55:12.613Z,47.50
2023-04-12T17:57:40.990Z,45.89
2023-04-12T18:00:12.016Z,45.47
2023-04-12T18:02:46.781Z,46.27
2023-04-12T18:05:14.846Z,48.64
2023-04-12T18:07:43.262Z,49.55
2023-04-12T18:10:15.644Z,47.33
2023-04-12T18:12:45.242Z,46.71
2023-04-12T18:15:13.152Z,46.00
2023-04-12T18:17:41.176Z,45.55
2023-04-12T18:20:12.402Z,45.60
2023-04-12T18:22:40.625Z,45.96
2023-04-12T18:25:09.143Z,45.13
2023-04-12T18:27:37.296Z,45.26
2023-04-12T18:30:05.585Z,45.18
2023-04-12T18:32:34.532Z,44.84
2023-04-12T18:35:04.760Z,45.10
2023-04-12T18:37:32.438Z,44.97
2023-04-12T18:40:00.832Z,45.14
2023-04-12T18:42:28.586Z,45.61
2023-04-12T18:44:58.296Z,45.62
2023-04-12T18:47:26.834Z,45.70
2023-04-12T18:49:55.415Z,45.50
2023-04-12T18:52:23.324Z,45.50
2023-04-12T18:54:51.480Z,45.97
2023-04-12T18:57:19.476Z,45.88
2023-04-12T18:59:49.271Z,46.13
2023-04-12T19:02:18.380Z,46.14
2023-04-12T19:04:46.274Z,46.12
2023-04-12T19:07:14.246Z,46.12
2023-04-12T19:09:42.227Z,46.10
2023-04-12T19:12:14.864Z,46.44
2023-04-12T19:14:51.676Z,46.13
2023-04-12T19:17:36.603Z,45.84
2023-04-12T19:20:09.570Z,45.92
2023-04-12T19:22:37.513Z,45.88
2023-04-12T19:25:05.948Z,45.54
2023-04-12T19:27:34.188Z,45.62
2023-04-12T19:30:03.956Z,45.68
2023-04-12T19:32:33.968Z,45.39
2023-04-12T19:35:02.080Z,45.77
2023-04-12T19:37:34.906Z,45.61
2023-04-12T19:40:02.756Z,45.22
2023-04-12T19:42:30.873Z,45.75
2023-04-12T19:45:00.644Z,45.57
2023-04-12T19:47:29.202Z,45.73
2023-04-12T19:49:57.080Z,46.00
2023-04-12T19:52:27.329Z,46.04
2023-04-12T19:54:58.313Z,46.53
2023-04-12T19:57:27.767Z,46.42
2023-04-12T19:59:57.788Z,46.91
2023-04-12T20:02:26.086Z,47.34
2023-04-12T20:05:03.398Z,48.24
2023-04-12T20:07:41.766Z,48.04
2023-04-12T20:10:19.671Z,48.37
2023-04-12T20:12:51.993Z,47.21
2023-04-12T20:15:20.751Z,46.95
2023-04-12T20:17:50.077Z,46.53
2023-04-12T20:20:17.912Z,46.10
2023-04-12T20:22:52.052Z,45.59
2023-04-12T20:25:22.788Z,45.26
2023-04-12T20:27:52.500Z,45.56
2023-04-12T20:30:21.508Z,45.34
2023-04-12T20:32:49.600Z,45.37
2023-04-12T20:35:18.816Z,45.54
2023-04-12T20:37:51.592Z,45.50
2023-04-12T20:40:20.255Z,46.03
2023-04-12T20:42:51.112Z,46.22
2023-04-12T20:45:21.855Z,45.76
2023-04-12T20:47:50.150Z,45.83
2023-04-12T20:50:19.089Z,45.23
2023-04-12T20:52:49.829Z,45.26
2023-04-12T20:55:18.055Z,45.17
2023-04-12T20:57:46.039Z,45.02
2023-04-12T21:00:19.026Z,45.10
2023-04-12T21:02:46.998Z,45.13
2023-04-12T21:05:17.193Z,45.04
2023-04-12T21:07:47.234Z,45.35
2023-04-12T21:10:15.488Z,45.07
2023-04-12T21:12:45.177Z,45.03
2023-04-12T21:15:27.297Z,45.11
2023-04-12T21:17:56.698Z,45.11
2023-04-12T21:20:26.832Z,45.44
2023-04-12T21:22:54.905Z,45.58
2023-04-12T21:25:23.504Z,45.35
2023-04-12T21:27:51.540Z,44.96
2023-04-12T21:30:19.580Z,44.46
2023-04-12T21:32:47.598Z,44.50
2023-04-12T21:35:16.849Z,44.46
2023-04-12T21:37:44.784Z,44.21
2023-04-12T21:40:13.551Z,44.30
2023-04-12T21:42:41.821Z,44.00
2023-04-12T21:45:10.307Z,43.71
2023-04-12T21:47:44.065Z,43.45
2023-04-12T21:50:15.176Z,43.38
2023-04-12T21:52:44.292Z,42.88
2023-04-12T21:55:12.222Z,42.80
2023-04-12T21:57:40.320Z,43.03
2023-04-12T22:00:10.257Z,42.73
2023-04-12T22:02:42.190Z,43.46
2023-04-12T22:05:10.729Z,43.77
2023-04-12T22:07:41.725Z,44.31
2023-04-12T22:10:12.450Z,44.46
2023-04-12T22:12:40.406Z,44.96
2023-04-12T22:15:11.729Z,45.57
2023-04-12T22:17:40.956Z,45.69
2023-04-12T22:20:16.329Z,45.54
2023-04-12T22:22:56.526Z,45.35
2023-04-12T22:25:25.068Z,45.80
2023-04-12T22:28:00.840Z,45.57
2023-04-12T22:30:48.669Z,45.89
2023-04-12T22:33:24.684Z,46.06
2023-04-12T22:35:57.213Z,46.15
2023-04-12T22:38:25.605Z,46.31
2023-04-12T22:40:55.166Z,46.18
2023-04-12T22:43:24.897Z,46.45
2023-04-12T22:45:54.124Z,46.33
2023-04-12T22:48:25.211Z,45.84
2023-04-12T22:50:54.618Z,45.96
2023-04-12T22:53:22.612Z,46.23
2023-04-12T22:55:54.182Z,46.12
2023-04-12T22:58:22.136Z,46.06
2023-04-12T23:00:50.954Z,46.39
2023-04-12T23:03:20.802Z,46.33
2023-04-12T23:05:50.812Z,46.25
2023-04-12T23:08:18.802Z,46.56
2023-04-12T23:10:46.616Z,46.39
2023-04-12T23:13:14.450Z,46.53
2023-04-12T23:15:45.650Z,46.50
2023-04-12T23:18:16.120Z,46.26
2023-04-12T23:20:44.965Z,46.56
2023-04-12T23:23:12.888Z,46.18
2023-04-12T23:25:42.159Z,46.37
2023-04-12T23:28:13.458Z,46.38
2023-04-12T23:30:49.514Z,46.59
2023-04-12T23:33:21.384Z,46.60
2023-04-12T23:35:56.241Z,46.49
2023-04-12T23:38:26.198Z,46.27
2023-04-12T23:40:54.502Z,46.10
2023-04-12T23:43:24.776Z,45.80
2023-04-12T23:45:53.286Z,46.00
2023-04-12T23:48:21.926Z,46.09
2023-04-12T23:50:50.303Z,46.02
2023-04-12T23:53:19.215Z,45.80
2023-04-12T23:55:49.408Z,45.71
2023-04-12T23:58:19.829Z,45.80
